sensor_id;sensor_type;location;lat;lon;timestamp;P1;durP1;ratioP1;P2;durP2;ratioP2
55112;SDS011;41006;50.920;3.456;2023-03-23T00:00:26;14.65;;;13.68;;
55112;SDS011;41006;50.920;3.456;2023-03-23T00:00:57;15.82;;;14.93;;
55112;SDS011;41006;50.920;3.456;2023-03-23T00:01:28;14.60;;;13.85;;
55112;SDS011;41006;50.920;3.456;2023-03-23T00:02:02;15.20;;;14.35;;
55112;SDS011;41006;50.920;3.456;2023-03-23T00:02:32;16.23;;;15.02;;
55112;SDS011;41006;50.920;3.456;2023-03-23T00:03:05;15.85;;;14.82;;
55112;SDS011;41006;50.920;3.456;2023-03-23T00:03:37;15.32;;;14.63;;
55112;SDS011;41006;50.920;3.456;2023-03-23T00:04:08;16.60;;;15.70;;
55112;SDS011;41006;50.920;3.456;2023-03-23T00:04:38;15.68;;;14.90;;
55112;SDS011;41006;50.920;3.456;2023-03-23T00:05:12;15.73;;;14.77;;
55112;SDS011;41006;50.920;3.456;2023-03-23T00:05:48;15.20;;;14.40;;
55112;SDS011;41006;50.920;3.456;2023-03-23T00:06:20;16.02;;;14.95;;
55112;SDS011;41006;50.920;3.456;2023-03-23T00:06:53;15.98;;;14.95;;
55112;SDS011;41006;50.920;3.456;2023-03-23T00:07:23;15.98;;;14.98;;
55112;SDS011;41006;50.920;3.456;2023-03-23T00:07:57;16.20;;;15.10;;
55112;SDS011;41006;50.920;3.456;2023-03-23T00:08:32;15.40;;;14.52;;
55112;SDS011;41006;50.920;3.456;2023-03-23T00:09:03;16.27;;;15.40;;
55112;SDS011;41006;50.920;3.456;2023-03-23T00:09:33;16.90;;;15.57;;
55112;SDS011;41006;50.920;3.456;2023-03-23T00:10:07;17.10;;;16.00;;
55112;SDS011;41006;50.920;3.456;2023-03-23T00:10:37;16.13;;;15.23;;
55112;SDS011;41006;50.920;3.456;2023-03-23T00:11:09;16.77;;;15.77;;
55112;SDS011;41006;50.920;3.456;2023-03-23T00:11:39;16.40;;;15.48;;
55112;SDS011;41006;50.920;3.456;2023-03-23T00:12:11;15.32;;;14.38;;
55112;SDS011;41006;50.920;3.456;2023-03-23T00:12:45;15.25;;;14.30;;
55112;SDS011;41006;50.920;3.456;2023-03-23T00:13:20;15.07;;;14.35;;
55112;SDS011;41006;50.920;3.456;2023-03-23T00:13:51;14.40;;;13.70;;
55112;SDS011;41006;50.920;3.456;2023-03-23T00:14:22;14.90;;;14.05;;
55112;SDS011;41006;50.920;3.456;2023-03-23T00:14:53;14.77;;;13.90;;
55112;SDS011;41006;50.920;3.456;2023-03-23T00:15:25;14.63;;;13.63;;
55112;SDS011;41006;50.920;3.456;2023-03-23T00:15:58;15.38;;;14.50;;
55112;SDS011;41006;50.920;3.456;2023-03-23T00:16:29;16.08;;;14.75;;
55112;SDS011;41006;50.920;3.456;2023-03-23T00:17:01;14.70;;;13.82;;
55112;SDS011;41006;50.920;3.456;2023-03-23T00:17:32;15.00;;;14.20;;
55112;SDS011;41006;50.920;3.456;2023-03-23T00:18:03;15.32;;;14.32;;
55112;SDS011;41006;50.920;3.456;2023-03-23T00:18:37;15.75;;;14.82;;
55112;SDS011;41006;50.920;3.456;2023-03-23T00:19:10;16.05;;;15.23;;
55112;SDS011;41006;50.920;3.456;2023-03-23T00:19:45;16.15;;;15.35;;
55112;SDS011;41006;50.920;3.456;2023-03-23T00:20:15;15.98;;;15.02;;
55112;SDS011;41006;50.920;3.456;2023-03-23T00:20:47;15.30;;;14.45;;
55112;SDS011;41006;50.920;3.456;2023-03-23T00:21:22;15.75;;;14.60;;
55112;SDS011;41006;50.920;3.456;2023-03-23T00:22:02;15.07;;;14.25;;
55112;SDS011;41006;50.920;3.456;2023-03-23T00:22:36;15.35;;;14.52;;
55112;SDS011;41006;50.920;3.456;2023-03-23T00:23:09;15.20;;;14.07;;
55112;SDS011;41006;50.920;3.456;2023-03-23T00:23:40;16.75;;;15.48;;
55112;SDS011;41006;50.920;3.456;2023-03-23T00:24:17;15.73;;;14.82;;
55112;SDS011;41006;50.920;3.456;2023-03-23T00:24:48;15.35;;;14.45;;
55112;SDS011;41006;50.920;3.456;2023-03-23T00:25:20;15.95;;;14.90;;
55112;SDS011;41006;50.920;3.456;2023-03-23T00:25:51;15.88;;;14.77;;
55112;SDS011;41006;50.920;3.456;2023-03-23T00:26:28;15.75;;;14.75;;
55112;SDS011;41006;50.920;3.456;2023-03-23T00:26:59;15.65;;;14.77;;
55112;SDS011;41006;50.920;3.456;2023-03-23T00:27:30;15.95;;;15.15;;
55112;SDS011;41006;50.920;3.456;2023-03-23T00:28:02;15.77;;;14.88;;
55112;SDS011;41006;50.920;3.456;2023-03-23T00:28:35;16.02;;;15.05;;
55112;SDS011;41006;50.920;3.456;2023-03-23T00:29:11;15.90;;;15.07;;
55112;SDS011;41006;50.920;3.456;2023-03-23T00:29:43;14.80;;;14.10;;
55112;SDS011;41006;50.920;3.456;2023-03-23T00:30:15;16.33;;;15.32;;
55112;SDS011;41006;50.920;3.456;2023-03-23T00:30:46;16.13;;;15.13;;
55112;SDS011;41006;50.920;3.456;2023-03-23T00:31:16;16.73;;;15.75;;
55112;SDS011;41006;50.920;3.456;2023-03-23T00:31:49;16.02;;;15.00;;
55112;SDS011;41006;50.920;3.456;2023-03-23T00:32:20;16.15;;;15.15;;
55112;SDS011;41006;50.920;3.456;2023-03-23T00:32:53;15.15;;;14.35;;
55112;SDS011;41006;50.920;3.456;2023-03-23T00:33:24;15.40;;;14.23;;
55112;SDS011;41006;50.920;3.456;2023-03-23T00:33:56;15.18;;;14.00;;
55112;SDS011;41006;50.920;3.456;2023-03-23T00:34:26;14.00;;;13.20;;
55112;SDS011;41006;50.920;3.456;2023-03-23T00:35:02;14.18;;;13.27;;
55112;SDS011;41006;50.920;3.456;2023-03-23T00:35:33;13.85;;;12.98;;
55112;SDS011;41006;50.920;3.456;2023-03-23T00:36:04;14.32;;;13.40;;
55112;SDS011;41006;50.920;3.456;2023-03-23T00:36:35;14.52;;;13.82;;
55112;SDS011;41006;50.920;3.456;2023-03-23T00:37:12;14.55;;;13.75;;
55112;SDS011;41006;50.920;3.456;2023-03-23T00:37:46;14.90;;;14.07;;
55112;SDS011;41006;50.920;3.456;2023-03-23T00:38:19;15.27;;;14.38;;
55112;SDS011;41006;50.920;3.456;2023-03-23T00:38:49;14.90;;;14.20;;
55112;SDS011;41006;50.920;3.456;2023-03-23T00:39:20;15.25;;;14.48;;
55112;SDS011;41006;50.920;3.456;2023-03-23T00:39:54;15.32;;;14.50;;
55112;SDS011;41006;50.920;3.456;2023-03-23T00:40:27;15.63;;;14.82;;
55112;SDS011;41006;50.920;3.456;2023-03-23T00:40:57;15.73;;;14.93;;
55112;SDS011;41006;50.920;3.456;2023-03-23T00:41:32;15.50;;;14.70;;
55112;SDS011;41006;50.920;3.456;2023-03-23T00:42:06;15.60;;;14.60;;
55112;SDS011;41006;50.920;3.456;2023-03-23T00:42:39;15.65;;;14.68;;
55112;SDS011;41006;50.920;3.456;2023-03-23T00:43:09;15.35;;;14.55;;
55112;SDS011;41006;50.920;3.456;2023-03-23T00:43:43;15.82;;;14.93;;
55112;SDS011;41006;50.920;3.456;2023-03-23T00:44:13;15.52;;;14.73;;
55112;SDS011;41006;50.920;3.456;2023-03-23T00:44:46;15.88;;;14.90;;
55112;SDS011;41006;50.920;3.456;2023-03-23T00:45:17;15.60;;;14.63;;
55112;SDS011;41006;50.920;3.456;2023-03-23T00:45:49;14.77;;;13.95;;
55112;SDS011;41006;50.920;3.456;2023-03-23T00:46:23;15.60;;;14.48;;
55112;SDS011;41006;50.920;3.456;2023-03-23T00:46:54;16.35;;;15.13;;
55112;SDS011;41006;50.920;3.456;2023-03-23T00:47:26;15.43;;;14.63;;
55112;SDS011;41006;50.920;3.456;2023-03-23T00:47:56;15.52;;;14.73;;
55112;SDS011;41006;50.920;3.456;2023-03-23T00:48:34;15.90;;;15.00;;
55112;SDS011;41006;50.920;3.456;2023-03-23T00:49:05;16.48;;;15.43;;
55112;SDS011;41006;50.920;3.456;2023-03-23T00:49:35;16.23;;;15.32;;
55112;SDS011;41006;50.920;3.456;2023-03-23T00:50:08;17.00;;;16.00;;
55112;SDS011;41006;50.920;3.456;2023-03-23T00:50:39;16.45;;;15.55;;
55112;SDS011;41006;50.920;3.456;2023-03-23T00:51:10;16.48;;;15.57;;
55112;SDS011;41006;50.920;3.456;2023-03-23T00:51:41;16.23;;;15.23;;
55112;SDS011;41006;50.920;3.456;2023-03-23T00:52:14;15.40;;;14.60;;
55112;SDS011;41006;50.920;3.456;2023-03-23T00:52:45;16.55;;;15.40;;
55112;SDS011;41006;50.920;3.456;2023-03-23T00:53:15;14.95;;;14.25;;
55112;SDS011;41006;50.920;3.456;2023-03-23T00:53:48;15.13;;;14.43;;
55112;SDS011;41006;50.920;3.456;2023-03-23T00:54:18;15.35;;;14.55;;
55112;SDS011;41006;50.920;3.456;2023-03-23T00:54:52;15.52;;;14.73;;
55112;SDS011;41006;50.920;3.456;2023-03-23T00:55:23;15.45;;;14.68;;
55112;SDS011;41006;50.920;3.456;2023-03-23T00:55:55;16.27;;;15.38;;
55112;SDS011;41006;50.920;3.456;2023-03-23T00:56:28;16.25;;;14.88;;
55112;SDS011;41006;50.920;3.456;2023-03-23T00:56:58;15.80;;;14.88;;
55112;SDS011;41006;50.920;3.456;2023-03-23T00:57:29;15.18;;;14.48;;
55112;SDS011;41006;50.920;3.456;2023-03-23T00:57:59;15.15;;;14.25;;
55112;SDS011;41006;50.920;3.456;2023-03-23T00:58:30;14.50;;;13.70;;
55112;SDS011;41006;50.920;3.456;2023-03-23T00:59:00;14.30;;;13.60;;
55112;SDS011;41006;50.920;3.456;2023-03-23T00:59:30;14.82;;;14.00;;
55112;SDS011;41006;50.920;3.456;2023-03-23T01:00:01;14.52;;;13.82;;
55112;SDS011;41006;50.920;3.456;2023-03-23T01:00:31;14.60;;;13.90;;
55112;SDS011;41006;50.920;3.456;2023-03-23T01:01:01;15.07;;;14.15;;
55112;SDS011;41006;50.920;3.456;2023-03-23T01:01:34;14.80;;;14.00;;
55112;SDS011;41006;50.920;3.456;2023-03-23T01:02:05;14.45;;;13.55;;
55112;SDS011;41006;50.920;3.456;2023-03-23T01:02:38;15.05;;;14.25;;
55112;SDS011;41006;50.920;3.456;2023-03-23T01:03:10;15.05;;;14.35;;
55112;SDS011;41006;50.920;3.456;2023-03-23T01:03:48;14.15;;;13.55;;
55112;SDS011;41006;50.920;3.456;2023-03-23T01:04:20;14.73;;;13.90;;
55112;SDS011;41006;50.920;3.456;2023-03-23T01:04:51;14.55;;;13.95;;
55112;SDS011;41006;50.920;3.456;2023-03-23T01:05:24;14.55;;;13.75;;
55112;SDS011;41006;50.920;3.456;2023-03-23T01:05:54;15.25;;;14.43;;
55112;SDS011;41006;50.920;3.456;2023-03-23T01:06:25;15.25;;;14.55;;
55112;SDS011;41006;50.920;3.456;2023-03-23T01:06:56;15.02;;;14.13;;
55112;SDS011;41006;50.920;3.456;2023-03-23T01:07:26;15.35;;;14.43;;
55112;SDS011;41006;50.920;3.456;2023-03-23T01:07:58;14.88;;;14.18;;
55112;SDS011;41006;50.920;3.456;2023-03-23T01:08:28;15.00;;;14.23;;
55112;SDS011;41006;50.920;3.456;2023-03-23T01:09:02;15.68;;;14.88;;
55112;SDS011;41006;50.920;3.456;2023-03-23T01:09:35;16.35;;;15.45;;
55112;SDS011;41006;50.920;3.456;2023-03-23T01:10:06;16.48;;;15.43;;
55112;SDS011;41006;50.920;3.456;2023-03-23T01:10:41;16.15;;;15.35;;
55112;SDS011;41006;50.920;3.456;2023-03-23T01:11:12;17.08;;;16.08;;
55112;SDS011;41006;50.920;3.456;2023-03-23T01:11:43;16.08;;;15.38;;
55112;SDS011;41006;50.920;3.456;2023-03-23T01:12:16;15.63;;;14.95;;
55112;SDS011;41006;50.920;3.456;2023-03-23T01:12:52;16.60;;;15.73;;
55112;SDS011;41006;50.920;3.456;2023-03-23T01:13:22;17.70;;;16.60;;
55112;SDS011;41006;50.920;3.456;2023-03-23T01:13:55;17.25;;;16.27;;
55112;SDS011;41006;50.920;3.456;2023-03-23T01:14:25;16.50;;;15.70;;
55112;SDS011;41006;50.920;3.456;2023-03-23T01:14:56;15.95;;;15.25;;
55112;SDS011;41006;50.920;3.456;2023-03-23T01:15:27;15.75;;;15.05;;
55112;SDS011;41006;50.920;3.456;2023-03-23T01:15:57;16.05;;;15.15;;
55112;SDS011;41006;50.920;3.456;2023-03-23T01:16:31;16.77;;;15.90;;
55112;SDS011;41006;50.920;3.456;2023-03-23T01:17:03;16.92;;;15.95;;
55112;SDS011;41006;50.920;3.456;2023-03-23T01:17:34;16.70;;;15.80;;
55112;SDS011;41006;50.920;3.456;2023-03-23T01:18:06;16.48;;;15.68;;
55112;SDS011;41006;50.920;3.456;2023-03-23T01:18:37;16.70;;;15.75;;
55112;SDS011;41006;50.920;3.456;2023-03-23T01:19:07;16.02;;;15.23;;
55112;SDS011;41006;50.920;3.456;2023-03-23T01:19:38;15.52;;;14.68;;
55112;SDS011;41006;50.920;3.456;2023-03-23T01:20:12;15.45;;;14.60;;
55112;SDS011;41006;50.920;3.456;2023-03-23T01:20:43;15.70;;;14.73;;
55112;SDS011;41006;50.920;3.456;2023-03-23T01:21:14;15.88;;;15.07;;
55112;SDS011;41006;50.920;3.456;2023-03-23T01:21:45;15.88;;;15.00;;
55112;SDS011;41006;50.920;3.456;2023-03-23T01:22:16;14.43;;;13.80;;
55112;SDS011;41006;50.920;3.456;2023-03-23T01:22:46;15.80;;;14.57;;
55112;SDS011;41006;50.920;3.456;2023-03-23T01:23:16;16.05;;;15.25;;
55112;SDS011;41006;50.920;3.456;2023-03-23T01:23:46;15.85;;;15.15;;
55112;SDS011;41006;50.920;3.456;2023-03-23T01:24:17;15.15;;;14.50;;
55112;SDS011;41006;50.920;3.456;2023-03-23T01:24:49;15.13;;;14.32;;
55112;SDS011;41006;50.920;3.456;2023-03-23T01:25:20;16.05;;;15.13;;
55112;SDS011;41006;50.920;3.456;2023-03-23T01:25:53;15.27;;;14.48;;
55112;SDS011;41006;50.920;3.456;2023-03-23T01:26:27;15.85;;;15.10;;
55112;SDS011;41006;50.920;3.456;2023-03-23T01:27:00;15.32;;;14.50;;
55112;SDS011;41006;50.920;3.456;2023-03-23T01:27:36;15.50;;;14.48;;
55112;SDS011;41006;50.920;3.456;2023-03-23T01:28:06;14.88;;;14.18;;
55112;SDS011;41006;50.920;3.456;2023-03-23T01:28:37;15.32;;;14.52;;
55112;SDS011;41006;50.920;3.456;2023-03-23T01:29:07;14.80;;;14.10;;
55112;SDS011;41006;50.920;3.456;2023-03-23T01:29:37;14.63;;;14.02;;
55112;SDS011;41006;50.920;3.456;2023-03-23T01:30:08;14.80;;;13.90;;
55112;SDS011;41006;50.920;3.456;2023-03-23T01:30:40;14.90;;;13.77;;
55112;SDS011;41006;50.920;3.456;2023-03-23T01:31:13;15.20;;;14.50;;
55112;SDS011;41006;50.920;3.456;2023-03-23T01:31:44;15.18;;;14.38;;
55112;SDS011;41006;50.920;3.456;2023-03-23T01:32:16;15.60;;;14.82;;
55112;SDS011;41006;50.920;3.456;2023-03-23T01:32:52;15.18;;;14.27;;
55112;SDS011;41006;50.920;3.456;2023-03-23T01:33:22;15.45;;;14.65;;
55112;SDS011;41006;50.920;3.456;2023-03-23T01:33:54;15.23;;;14.57;;
55112;SDS011;41006;50.920;3.456;2023-03-23T01:34:26;15.02;;;14.30;;
55112;SDS011;41006;50.920;3.456;2023-03-23T01:34:56;15.18;;;14.50;;
55112;SDS011;41006;50.920;3.456;2023-03-23T01:35:27;15.75;;;14.77;;
55112;SDS011;41006;50.920;3.456;2023-03-23T01:36:01;15.57;;;14.77;;
55112;SDS011;41006;50.920;3.456;2023-03-23T01:36:32;15.40;;;14.70;;
55112;SDS011;41006;50.920;3.456;2023-03-23T01:37:09;15.50;;;14.60;;
55112;SDS011;41006;50.920;3.456;2023-03-23T01:37:39;15.60;;;14.48;;
55112;SDS011;41006;50.920;3.456;2023-03-23T01:38:12;15.43;;;14.73;;
55112;SDS011;41006;50.920;3.456;2023-03-23T01:38:43;15.38;;;14.40;;
55112;SDS011;41006;50.920;3.456;2023-03-23T01:39:13;15.05;;;14.18;;
55112;SDS011;41006;50.920;3.456;2023-03-23T01:39:44;15.30;;;14.60;;
55112;SDS011;41006;50.920;3.456;2023-03-23T01:40:17;15.15;;;14.23;;
55112;SDS011;41006;50.920;3.456;2023-03-23T01:40:47;15.52;;;14.77;;
55112;SDS011;41006;50.920;3.456;2023-03-23T01:41:23;14.90;;;14.10;;
55112;SDS011;41006;50.920;3.456;2023-03-23T01:41:56;14.75;;;13.95;;
55112;SDS011;41006;50.920;3.456;2023-03-23T01:42:33;13.20;;;12.65;;
55112;SDS011;41006;50.920;3.456;2023-03-23T01:43:08;14.25;;;13.45;;
55112;SDS011;41006;50.920;3.456;2023-03-23T01:45:52;13.48;;;12.77;;
55112;SDS011;41006;50.920;3.456;2023-03-23T01:46:23;13.50;;;12.75;;
55112;SDS011;41006;50.920;3.456;2023-03-23T01:46:55;13.30;;;12.50;;
55112;SDS011;41006;50.920;3.456;2023-03-23T01:47:28;13.88;;;13.07;;
55112;SDS011;41006;50.920;3.456;2023-03-23T01:47:59;13.68;;;12.88;;
55112;SDS011;41006;50.920;3.456;2023-03-23T01:48:34;13.90;;;13.20;;
55112;SDS011;41006;50.920;3.456;2023-03-23T01:49:07;13.45;;;12.85;;
55112;SDS011;41006;50.920;3.456;2023-03-23T01:49:42;13.48;;;12.77;;
55112;SDS011;41006;50.920;3.456;2023-03-23T01:50:16;14.15;;;13.15;;
55112;SDS011;41006;50.920;3.456;2023-03-23T01:50:49;13.65;;;12.75;;
55112;SDS011;41006;50.920;3.456;2023-03-23T01:51:22;13.45;;;12.70;;
55112;SDS011;41006;50.920;3.456;2023-03-23T01:51:54;14.50;;;13.40;;
55112;SDS011;41006;50.920;3.456;2023-03-23T01:52:26;13.75;;;13.15;;
55112;SDS011;41006;50.920;3.456;2023-03-23T01:52:59;14.43;;;13.52;;
55112;SDS011;41006;50.920;3.456;2023-03-23T01:53:30;14.18;;;13.48;;
55112;SDS011;41006;50.920;3.456;2023-03-23T01:54:06;14.75;;;14.10;;
55112;SDS011;41006;50.920;3.456;2023-03-23T01:54:39;14.35;;;13.63;;
55112;SDS011;41006;50.920;3.456;2023-03-23T01:55:10;15.18;;;14.27;;
55112;SDS011;41006;50.920;3.456;2023-03-23T01:55:41;15.52;;;14.73;;
55112;SDS011;41006;50.920;3.456;2023-03-23T01:56:14;15.07;;;14.38;;
55112;SDS011;41006;50.920;3.456;2023-03-23T01:57:19;15.10;;;14.27;;
55112;SDS011;41006;50.920;3.456;2023-03-23T01:57:45;14.68;;;13.82;;
55112;SDS011;41006;50.920;3.456;2023-03-23T01:58:19;14.05;;;13.25;;
55112;SDS011;41006;50.920;3.456;2023-03-23T01:58:51;14.40;;;13.70;;
55112;SDS011;41006;50.920;3.456;2023-03-23T01:59:25;14.13;;;13.32;;
55112;SDS011;41006;50.920;3.456;2023-03-23T01:59:57;14.00;;;13.18;;
55112;SDS011;41006;50.920;3.456;2023-03-23T02:00:29;14.80;;;13.80;;
55112;SDS011;41006;50.920;3.456;2023-03-23T02:01:02;13.45;;;12.80;;
55112;SDS011;41006;50.920;3.456;2023-03-23T02:01:33;13.80;;;12.77;;
55112;SDS011;41006;50.920;3.456;2023-03-23T02:02:06;13.80;;;12.80;;
55112;SDS011;41006;50.920;3.456;2023-03-23T02:02:36;14.48;;;13.52;;
55112;SDS011;41006;50.920;3.456;2023-03-23T02:03:11;13.57;;;12.63;;
55112;SDS011;41006;50.920;3.456;2023-03-23T02:03:46;14.20;;;13.20;;
55112;SDS011;41006;50.920;3.456;2023-03-23T02:04:18;15.32;;;14.13;;
55112;SDS011;41006;50.920;3.456;2023-03-23T02:04:54;12.95;;;12.15;;
55112;SDS011;41006;50.920;3.456;2023-03-23T02:05:30;11.93;;;11.32;;
55112;SDS011;41006;50.920;3.456;2023-03-23T02:06:04;12.05;;;11.23;;
55112;SDS011;41006;50.920;3.456;2023-03-23T02:06:34;12.43;;;11.52;;
55112;SDS011;41006;50.920;3.456;2023-03-23T02:07:05;12.02;;;11.27;;
55112;SDS011;41006;50.920;3.456;2023-03-23T02:07:38;11.98;;;11.30;;
55112;SDS011;41006;50.920;3.456;2023-03-23T02:08:11;12.35;;;11.32;;
55112;SDS011;41006;50.920;3.456;2023-03-23T02:08:44;11.98;;;11.27;;
55112;SDS011;41006;50.920;3.456;2023-03-23T02:09:14;13.13;;;11.93;;
55112;SDS011;41006;50.920;3.456;2023-03-23T02:09:48;12.63;;;11.95;;
55112;SDS011;41006;50.920;3.456;2023-03-23T02:10:21;12.15;;;11.55;;
55112;SDS011;41006;50.920;3.456;2023-03-23T02:10:54;12.73;;;11.93;;
55112;SDS011;41006;50.920;3.456;2023-03-23T02:11:24;13.07;;;11.77;;
55112;SDS011;41006;50.920;3.456;2023-03-23T02:11:55;13.20;;;12.00;;
55112;SDS011;41006;50.920;3.456;2023-03-23T02:12:28;13.13;;;12.32;;
55112;SDS011;41006;50.920;3.456;2023-03-23T02:12:59;13.45;;;12.60;;
55112;SDS011;41006;50.920;3.456;2023-03-23T02:13:30;13.77;;;12.50;;
55112;SDS011;41006;50.920;3.456;2023-03-23T02:14:00;13.50;;;12.50;;
55112;SDS011;41006;50.920;3.456;2023-03-23T02:14:31;12.95;;;12.02;;
55112;SDS011;41006;50.920;3.456;2023-03-23T02:15:06;12.93;;;12.02;;
55112;SDS011;41006;50.920;3.456;2023-03-23T02:15:39;13.20;;;12.30;;
55112;SDS011;41006;50.920;3.456;2023-03-23T02:20:06;13.95;;;13.00;;
55112;SDS011;41006;50.920;3.456;2023-03-23T02:23:08;13.30;;;12.43;;
55112;SDS011;41006;50.920;3.456;2023-03-23T02:27:13;13.60;;;12.70;;
55112;SDS011;41006;50.920;3.456;2023-03-23T02:28:31;14.20;;;13.18;;
55112;SDS011;41006;50.920;3.456;2023-03-23T02:30:29;12.38;;;11.55;;
55112;SDS011;41006;50.920;3.456;2023-03-23T02:31:05;11.98;;;11.30;;
55112;SDS011;41006;50.920;3.456;2023-03-23T02:31:52;12.75;;;11.93;;
55112;SDS011;41006;50.920;3.456;2023-03-23T02:34:02;12.80;;;11.90;;
55112;SDS011;41006;50.920;3.456;2023-03-23T02:34:39;13.93;;;11.95;;
55112;SDS011;41006;50.920;3.456;2023-03-23T02:35:14;12.77;;;11.90;;
55112;SDS011;41006;50.920;3.456;2023-03-23T02:35:52;14.55;;;12.32;;
55112;SDS011;41006;50.920;3.456;2023-03-23T02:37:04;12.93;;;12.07;;
55112;SDS011;41006;50.920;3.456;2023-03-23T02:37:38;14.25;;;13.18;;
55112;SDS011;41006;50.920;3.456;2023-03-23T02:39:26;13.13;;;12.25;;
55112;SDS011;41006;50.920;3.456;2023-03-23T02:40:02;13.18;;;12.27;;
55112;SDS011;41006;50.920;3.456;2023-03-23T02:40:45;13.63;;;12.23;;
55112;SDS011;41006;50.920;3.456;2023-03-23T02:41:18;12.88;;;12.07;;
55112;SDS011;41006;50.920;3.456;2023-03-23T02:41:53;14.10;;;12.90;;
55112;SDS011;41006;50.920;3.456;2023-03-23T02:42:26;13.52;;;12.55;;
55112;SDS011;41006;50.920;3.456;2023-03-23T02:42:58;14.07;;;12.93;;
55112;SDS011;41006;50.920;3.456;2023-03-23T02:43:31;13.75;;;12.75;;
55112;SDS011;41006;50.920;3.456;2023-03-23T02:44:05;13.63;;;12.75;;
55112;SDS011;41006;50.920;3.456;2023-03-23T02:44:37;14.77;;;13.68;;
55112;SDS011;41006;50.920;3.456;2023-03-23T02:45:09;13.43;;;12.60;;
55112;SDS011;41006;50.920;3.456;2023-03-23T02:45:40;14.23;;;13.02;;
55112;SDS011;41006;50.920;3.456;2023-03-23T02:46:14;13.88;;;13.13;;
55112;SDS011;41006;50.920;3.456;2023-03-23T02:46:47;13.68;;;12.88;;
55112;SDS011;41006;50.920;3.456;2023-03-23T02:47:22;14.50;;;13.57;;
55112;SDS011;41006;50.920;3.456;2023-03-23T02:47:56;15.20;;;14.10;;
55112;SDS011;41006;50.920;3.456;2023-03-23T02:48:28;14.70;;;13.70;;
55112;SDS011;41006;50.920;3.456;2023-03-23T02:49:03;14.52;;;13.73;;
55112;SDS011;41006;50.920;3.456;2023-03-23T02:49:35;14.25;;;13.40;;
55112;SDS011;41006;50.920;3.456;2023-03-23T02:50:08;14.30;;;13.32;;
55112;SDS011;41006;50.920;3.456;2023-03-23T02:50:42;14.25;;;13.25;;
55112;SDS011;41006;50.920;3.456;2023-03-23T02:51:18;13.75;;;12.82;;
55112;SDS011;41006;50.920;3.456;2023-03-23T02:51:49;14.13;;;13.13;;
55112;SDS011;41006;50.920;3.456;2023-03-23T02:52:21;14.07;;;13.10;;
55112;SDS011;41006;50.920;3.456;2023-03-23T02:52:52;14.45;;;13.52;;
55112;SDS011;41006;50.920;3.456;2023-03-23T02:53:25;14.27;;;13.18;;
55112;SDS011;41006;50.920;3.456;2023-03-23T02:53:56;14.38;;;13.10;;
55112;SDS011;41006;50.920;3.456;2023-03-23T02:54:30;14.07;;;13.27;;
55112;SDS011;41006;50.920;3.456;2023-03-23T02:55:02;14.38;;;13.45;;
55112;SDS011;41006;50.920;3.456;2023-03-23T02:55:34;14.40;;;13.30;;
55112;SDS011;41006;50.920;3.456;2023-03-23T02:56:05;13.45;;;12.60;;
55112;SDS011;41006;50.920;3.456;2023-03-23T02:56:36;14.07;;;12.82;;
55112;SDS011;41006;50.920;3.456;2023-03-23T02:57:06;13.50;;;12.70;;
55112;SDS011;41006;50.920;3.456;2023-03-23T02:57:37;13.73;;;12.70;;
55112;SDS011;41006;50.920;3.456;2023-03-23T02:58:08;14.52;;;13.25;;
55112;SDS011;41006;50.920;3.456;2023-03-23T02:58:39;13.90;;;12.98;;
55112;SDS011;41006;50.920;3.456;2023-03-23T02:59:09;13.30;;;12.57;;
55112;SDS011;41006;50.920;3.456;2023-03-23T02:59:40;13.55;;;12.63;;
55112;SDS011;41006;50.920;3.456;2023-03-23T03:00:12;14.02;;;13.18;;
55112;SDS011;41006;50.920;3.456;2023-03-23T03:00:44;13.60;;;12.70;;
55112;SDS011;41006;50.920;3.456;2023-03-23T03:01:57;13.27;;;12.60;;
55112;SDS011;41006;50.920;3.456;2023-03-23T03:02:28;13.80;;;13.00;;
55112;SDS011;41006;50.920;3.456;2023-03-23T03:02:59;13.20;;;12.32;;
55112;SDS011;41006;50.920;3.456;2023-03-23T03:03:32;13.38;;;12.48;;
55112;SDS011;41006;50.920;3.456;2023-03-23T03:04:05;14.52;;;13.55;;
55112;SDS011;41006;50.920;3.456;2023-03-23T03:04:37;14.23;;;13.10;;
55112;SDS011;41006;50.920;3.456;2023-03-23T03:07:33;13.88;;;13.00;;
55112;SDS011;41006;50.920;3.456;2023-03-23T03:08:43;14.52;;;13.63;;
55112;SDS011;41006;50.920;3.456;2023-03-23T03:09:21;13.85;;;13.05;;
55112;SDS011;41006;50.920;3.456;2023-03-23T03:10:04;12.88;;;12.05;;
55112;SDS011;41006;50.920;3.456;2023-03-23T03:10:38;14.00;;;12.80;;
55112;SDS011;41006;50.920;3.456;2023-03-23T03:11:13;13.70;;;12.65;;
55112;SDS011;41006;50.920;3.456;2023-03-23T03:11:46;13.07;;;12.32;;
55112;SDS011;41006;50.920;3.456;2023-03-23T03:13:47;13.13;;;11.98;;
55112;SDS011;41006;50.920;3.456;2023-03-23T03:14:22;11.93;;;11.43;;
55112;SDS011;41006;50.920;3.456;2023-03-23T03:14:59;12.85;;;11.90;;
55112;SDS011;41006;50.920;3.456;2023-03-23T03:16:07;13.02;;;12.07;;
55112;SDS011;41006;50.920;3.456;2023-03-23T03:17:14;13.48;;;12.70;;
55112;SDS011;41006;50.920;3.456;2023-03-23T03:17:57;12.48;;;11.77;;
55112;SDS011;41006;50.920;3.456;2023-03-23T03:18:32;12.45;;;11.68;;
55112;SDS011;41006;50.920;3.456;2023-03-23T03:19:22;12.48;;;11.27;;
55112;SDS011;41006;50.920;3.456;2023-03-23T03:19:56;12.30;;;11.40;;
55112;SDS011;41006;50.920;3.456;2023-03-23T03:20:28;12.77;;;11.77;;
55112;SDS011;41006;50.920;3.456;2023-03-23T03:21:01;12.50;;;11.35;;
55112;SDS011;41006;50.920;3.456;2023-03-23T03:21:35;12.13;;;11.20;;
55112;SDS011;41006;50.920;3.456;2023-03-23T03:22:07;12.82;;;12.10;;
55112;SDS011;41006;50.920;3.456;2023-03-23T03:22:38;12.68;;;11.95;;
55112;SDS011;41006;50.920;3.456;2023-03-23T03:23:14;13.90;;;12.75;;
55112;SDS011;41006;50.920;3.456;2023-03-23T03:23:48;14.38;;;13.30;;
55112;SDS011;41006;50.920;3.456;2023-03-23T03:24:21;13.70;;;12.70;;
55112;SDS011;41006;50.920;3.456;2023-03-23T03:24:52;14.25;;;13.20;;
55112;SDS011;41006;50.920;3.456;2023-03-23T03:25:26;14.23;;;13.43;;
55112;SDS011;41006;50.920;3.456;2023-03-23T03:25:57;13.70;;;12.85;;
55112;SDS011;41006;50.920;3.456;2023-03-23T03:26:31;12.88;;;12.27;;
55112;SDS011;41006;50.920;3.456;2023-03-23T03:27:02;14.13;;;12.80;;
55112;SDS011;41006;50.920;3.456;2023-03-23T03:27:34;14.52;;;13.45;;
55112;SDS011;41006;50.920;3.456;2023-03-23T03:28:12;13.93;;;13.32;;
55112;SDS011;41006;50.920;3.456;2023-03-23T03:28:44;14.50;;;13.50;;
55112;SDS011;41006;50.920;3.456;2023-03-23T03:29:18;13.93;;;13.13;;
55112;SDS011;41006;50.920;3.456;2023-03-23T03:29:54;14.20;;;13.30;;
55112;SDS011;41006;50.920;3.456;2023-03-23T03:30:28;14.07;;;12.95;;
55112;SDS011;41006;50.920;3.456;2023-03-23T03:31:01;14.07;;;13.10;;
55112;SDS011;41006;50.920;3.456;2023-03-23T03:31:38;13.95;;;13.20;;
55112;SDS011;41006;50.920;3.456;2023-03-23T03:32:11;12.63;;;11.80;;
55112;SDS011;41006;50.920;3.456;2023-03-23T03:32:45;12.95;;;12.10;;
55112;SDS011;41006;50.920;3.456;2023-03-23T03:33:19;13.07;;;12.18;;
55112;SDS011;41006;50.920;3.456;2023-03-23T03:33:50;13.30;;;12.18;;
55112;SDS011;41006;50.920;3.456;2023-03-23T03:34:21;12.85;;;11.98;;
55112;SDS011;41006;50.920;3.456;2023-03-23T03:34:51;12.32;;;11.05;;
55112;SDS011;41006;50.920;3.456;2023-03-23T03:35:24;12.07;;;11.18;;